Time;durP1;ratioP1;P1;durP2;ratioP2;P2;SDS_P1;SDS_P2;PMS_P1;PMS_P2;Temp;Humidity;BMP_temperature;BMP_pressure;BME280_temperature;BME280_humidity;BME280_pressure;Samples;Min_cycle;Max_cycle;Signal;HPM_P1;HPM_P2
2022/07/17 00:00:19;;;;;;;;;18.00;17.75;;;;;24.60;41.44;99813.13;5088427;28;8848;-75
2022/07/17 00:03:03;;;;;;;;;17.00;17.00;;;;;24.75;41.23;99806.09;5087810;28;8847;-74
2022/07/17 00:05:34;;;;;;;;;23.75;22.75;;;;;24.85;41.46;99812.63;5087599;28;8849;-75
2022/07/17 00:08:02;;;;;;;;;21.00;18.00;;;;;24.92;41.45;99810.50;5088693;28;8889;-76
2022/07/17 00:10:31;;;;;;;;;20.75;19.75;;;;;24.97;41.15;99812.88;5091160;28;8878;-75
2022/07/17 00:13:00;;;;;;;;;17.50;16.75;;;;;25.02;40.82;99817.03;5094422;28;8875;-74
2022/07/17 00:15:28;;;;;;;;;15.25;14.75;;;;;25.04;40.94;99812.44;5089746;28;8859;-74
2022/07/17 00:17:57;;;;;;;;;20.50;19.50;;;;;25.04;40.56;99817.78;5088917;28;8989;-75
2022/07/17 00:20:26;;;;;;;;;21.75;20.00;;;;;25.04;40.67;99815.13;5087469;28;8850;-75
2022/07/17 00:22:57;;;;;;;;;18.50;16.50;;;;;25.05;40.50;99821.34;5087201;28;8860;-74
2022/07/17 00:25:26;;;;;;;;;17.75;17.50;;;;;25.03;40.60;99820.56;5087239;28;8844;-74
2022/07/17 00:27:55;;;;;;;;;18.00;18.00;;;;;25.01;40.96;99811.75;5104419;28;8856;-76
2022/07/17 00:30:23;;;;;;;;;18.20;18.20;;;;;25.00;41.14;99826.06;5088819;28;8843;-75
2022/07/17 00:32:52;;;;;;;;;15.00;15.00;;;;;24.95;41.33;99820.97;5087927;28;8863;-75
2022/07/17 00:35:21;;;;;;;;;14.00;12.40;;;;;24.92;41.29;99825.66;5058747;28;8963;-75
2022/07/17 00:37:50;;;;;;;;;18.60;18.60;;;;;24.86;41.41;99826.84;5108822;28;8849;-77
2022/07/17 00:40:21;;;;;;;;;18.20;16.80;;;;;24.80;41.37;99833.38;5109075;28;8864;-75
2022/07/17 00:42:51;;;;;;;;;18.80;18.40;;;;;24.74;41.51;99820.34;5109023;28;8855;-74
2022/07/17 00:45:24;;;;;;;;;14.40;13.20;;;;;24.73;41.02;99823.97;5107353;28;8845;-73
2022/07/17 00:47:58;;;;;;;;;16.80;15.40;;;;;24.70;41.15;99832.13;5108611;28;8853;-74
2022/07/17 00:50:30;;;;;;;;;19.20;18.20;;;;;24.65;41.04;99820.84;5107019;28;8951;-75
2022/07/17 00:52:59;;;;;;;;;15.75;15.75;;;;;24.58;40.65;99815.00;5107502;28;8865;-75
2022/07/17 00:55:30;;;;;;;;;15.40;15.40;;;;;24.56;40.44;99814.22;5105888;28;8854;-74
2022/07/17 00:58:19;;;;;;;;;15.20;15.20;;;;;24.52;40.52;99813.53;5092412;28;8959;-74
2022/07/17 01:00:50;;;;;;;;;14.00;14.00;;;;;24.48;40.00;99814.63;5090950;28;8843;-75
2022/07/17 01:03:20;;;;;;;;;13.40;13.20;;;;;24.42;39.76;99809.59;5091491;28;8863;-75
2022/07/17 01:05:49;;;;;;;;;12.00;11.80;;;;;24.32;39.81;99819.03;5092173;28;8847;-74
2022/07/17 01:08:18;;;;;;;;;15.80;13.80;;;;;24.32;40.02;99821.69;5092625;28;8867;-75
2022/07/17 01:10:48;;;;;;;;;13.60;13.00;;;;;24.32;40.12;99814.56;5091954;28;8856;-75
2022/07/17 01:13:18;;;;;;;;;14.20;14.20;;;;;24.32;40.10;99819.03;5092312;28;9580;-74
2022/07/17 01:15:47;;;;;;;;;14.20;14.20;;;;;24.33;40.54;99818.09;5090582;28;9661;-74
2022/07/17 01:18:15;;;;;;;;;13.40;13.40;;;;;24.33;40.52;99820.78;5090749;28;8868;-74
2022/07/17 01:20:48;;;;;;;;;15.20;14.60;;;;;24.33;40.43;99823.44;5091984;28;8839;-74
2022/07/17 01:23:19;;;;;;;;;14.00;14.00;;;;;24.32;40.58;99821.69;5091989;28;8848;-75
2022/07/17 01:25:49;;;;;;;;;13.80;12.40;;;;;24.31;40.93;99817.34;5091878;28;8848;-75
2022/07/17 01:28:17;;;;;;;;;15.00;13.80;;;;;24.30;41.22;99816.44;5091771;28;8870;-74
2022/07/17 01:30:48;;;;;;;;;14.20;12.00;;;;;24.29;41.43;99821.84;5107778;28;8859;-74
2022/07/17 01:33:18;;;;;;;;;18.00;14.00;;;;;24.30;41.54;99820.94;5091216;28;8844;-76
2022/07/17 01:35:47;;;;;;;;;16.20;14.80;;;;;24.29;41.70;99821.84;5091560;28;8852;-74
2022/07/17 01:38:16;;;;;;;;;14.60;14.60;;;;;24.24;41.56;99818.59;5089902;28;8839;-75
2022/07/17 01:40:46;;;;;;;;;16.60;16.60;;;;;24.22;41.67;99817.81;5091887;28;8847;-74
2022/07/17 01:43:14;;;;;;;;;15.60;15.60;;;;;24.21;41.83;99824.94;5090504;28;8867;-73
2022/07/17 01:45:43;;;;;;;;;17.40;16.00;;;;;24.20;42.04;99823.22;5091578;28;9740;-76
2022/07/17 01:48:12;;;;;;;;;15.40;15.20;;;;;24.20;41.85;99819.69;5091095;28;8820;-74
2022/07/17 01:50:40;;;;;;;;;16.40;15.60;;;;;24.18;41.88;99829.56;5091306;28;8860;-74
2022/07/17 01:53:09;;;;;;;;;18.20;17.60;;;;;24.16;41.92;99826.09;5091522;28;8899;-73
2022/07/17 01:55:37;;;;;;;;;16.40;14.40;;;;;24.18;42.07;99840.22;5091376;28;8947;-74
2022/07/17 01:58:07;;;;;;;;;17.40;17.00;;;;;24.17;41.99;99842.03;5055712;28;8839;-73
2022/07/17 02:00:36;;;;;;;;;18.00;18.00;;;;;23.96;42.65;99854.66;5091318;28;8866;-74
2022/07/17 02:03:04;;;;;;;;;19.20;18.00;;;;;23.67;43.30;99872.94;5070057;28;8837;-74
2022/07/17 02:05:33;;;;;;;;;15.80;13.40;;;;;23.19;44.41;99871.69;5111688;28;8848;-79
2022/07/17 02:08:02;;;;;;;;;15.40;14.40;;;;;22.91;44.99;99867.66;5109277;28;8849;-76
2022/07/17 02:10:31;;;;;;;;;18.20;17.20;;;;;22.86;45.48;99874.13;5110065;28;8821;-75
2022/07/17 02:12:59;;;;;;;;;14.60;14.60;;;;;22.74;46.05;99867.53;5092234;28;8849;-75
2022/07/17 02:15:30;;;;;;;;;19.40;19.40;;;;;22.74;46.12;99859.56;5088227;28;8842;-76
2022/07/17 02:17:59;;;;;;;;;19.00;19.00;;;;;22.80;46.42;99854.00;5088191;28;8869;-75
2022/07/17 02:20:27;;;;;;;;;20.00;19.00;;;;;22.60;47.38;99862.88;5071467;28;8861;-77
2022/07/17 02:22:56;;;;;;;;;20.25;20.25;;;;;22.34;48.45;99864.03;5071367;28;8834;-76
2022/07/17 02:25:25;;;;;;;;;20.50;20.25;;;;;22.06;49.72;99866.97;5088723;28;8858;-74
2022/07/17 02:27:56;;;;;;;;;21.25;20.25;;;;;21.82;50.27;99867.09;5071925;28;8845;-76
2022/07/17 02:30:25;;;;;;;;;21.40;21.00;;;;;21.88;50.09;99873.94;5088371;28;8972;-75
2022/07/17 02:32:55;;;;;;;;;20.40;20.40;;;;;22.19;49.15;99871.72;5088395;28;8849;-75
2022/07/17 02:35:24;;;;;;;;;19.80;19.20;;;;;22.37;48.36;99875.38;5087959;28;8887;-74
2022/07/17 02:37:52;;;;;;;;;19.40;18.20;;;;;22.60;47.79;99875.31;5088446;28;9642;-74
2022/07/17 02:40:21;;;;;;;;;23.75;23.00;;;;;22.46;48.93;99875.94;5071014;28;9039;-74
2022/07/17 02:42:50;;;;;;;;;21.25;21.00;;;;;22.25;50.03;99883.91;5071027;28;8842;-75
2022/07/17 02:45:24;;;;;;;;;27.75;25.00;;;;;22.00;51.03;99886.69;5090752;28;8857;-79
2022/07/17 02:47:53;;;;;;;;;23.25;22.75;;;;;21.85;51.72;99884.69;5092279;28;8929;-76
2022/07/17 02:50:23;;;;;;;;;23.00;23.00;;;;;21.82;52.09;99890.16;5092875;28;8847;-75
2022/07/17 02:52:52;;;;;;;;;22.50;22.00;;;;;21.66;52.90;99901.38;5090540;28;8828;-77
2022/07/17 02:55:20;;;;;;;;;22.75;22.75;;;;;21.75;52.76;99901.00;5072775;28;8956;-76
2022/07/17 02:57:49;;;;;;;;;25.75;25.75;;;;;21.67;53.33;99896.94;5090023;28;8847;-78
2022/07/17 03:00:20;;;;;;;;;23.75;22.50;;;;;21.69;53.30;99900.41;5073276;28;8956;-77
2022/07/17 03:02:49;;;;;;;;;23.60;22.40;;;;;21.75;53.21;99906.31;5092376;28;8950;-78
2022/07/17 03:05:18;;;;;;;;;27.00;24.75;;;;;21.94;52.48;99902.91;5093162;28;8871;-78
2022/07/17 03:07:48;;;;;;;;;20.75;20.25;;;;;22.14;51.78;99910.03;5093382;28;8862;-78
2022/07/17 03:10:17;;;;;;;;;22.20;20.00;;;;;22.33;51.36;99912.81;5075474;28;8878;-77
2022/07/17 03:12:45;;;;;;;;;20.60;20.60;;;;;22.45;50.38;99919.38;5075084;28;9593;-77
2022/07/17 03:15:14;;;;;;;;;19.40;18.80;;;;;22.57;50.01;99921.47;5054446;28;9651;-79
2022/07/17 03:17:43;;;;;;;;;21.00;21.00;;;;;22.58;49.18;99913.44;5072518;28;8848;-78
2022/07/17 03:20:12;;;;;;;;;19.00;19.00;;;;;22.67;49.10;99919.28;5018011;28;8906;-77
2022/07/17 03:22:41;;;;;;;;;21.40;20.40;;;;;22.80;48.69;99928.44;5067958;28;8836;-80
2022/07/17 03:25:11;;;;;;;;;18.80;18.80;;;;;22.83;48.43;99930.09;5071053;28;9032;-77
2022/07/17 03:27:40;;;;;;;;;17.60;17.60;;;;;22.90;47.47;99929.75;5067101;28;8874;-78
2022/07/17 03:30:09;;;;;;;;;17.60;17.00;;;;;22.77;47.03;99928.56;5066817;28;8982;-82
2022/07/17 03:32:38;;;;;;;;;16.60;16.00;;;;;22.78;47.18;99925.00;5033971;28;8897;-79
2022/07/17 03:35:08;;;;;;;;;16.20;15.00;;;;;22.81;47.09;99926.66;5017370;28;8844;-77
2022/07/17 03:37:37;;;;;;;;;17.20;17.20;;;;;22.84;46.57;99935.34;5066381;28;8848;-77
2022/07/17 03:40:07;;;;;;;;;18.00;13.20;;;;;22.87;46.60;99935.22;5047093;28;8889;-79
2022/07/17 03:42:37;;;;;;;;;18.00;15.00;;;;;22.79;46.12;99940.00;5031025;28;8981;-78
2022/07/17 03:45:07;;;;;;;;;13.40;12.20;;;;;22.75;45.28;99933.09;5030843;28;8884;-79
2022/07/17 03:47:36;;;;;;;;;14.80;13.40;;;;;22.71;45.07;99942.16;5046926;28;8885;-79
2022/07/17 03:50:05;;;;;;;;;16.40;15.40;;;;;22.72;45.04;99942.09;5016089;28;8964;-77
2022/07/17 03:52:35;;;;;;;;;15.00;14.80;;;;;22.69;45.51;99939.56;5019691;28;9754;-78
2022/07/17 03:55:03;;;;;;;;;15.20;13.20;;;;;22.79;45.44;99945.31;5034574;28;8873;-79
2022/07/17 03:57:32;;;;;;;;;11.00;11.00;;;;;22.90;45.21;99945.72;5050140;28;8840;-77
2022/07/17 04:00:05;;;;;;;;;16.00;16.00;;;;;22.98;45.17;99948.00;5033200;28;8882;-78
2022/07/17 04:02:39;;;;;;;;;14.60;14.60;;;;;22.86;45.35;99951.25;5049528;28;8840;-78
2022/07/17 04:05:09;;;;;;;;;15.40;15.40;;;;;22.77;45.27;99952.50;5049635;28;8844;-77
2022/07/17 04:07:38;;;;;;;;;16.40;14.60;;;;;22.87;45.36;99958.28;5009869;28;8895;-78
2022/07/17 04:10:08;;;;;;;;;16.00;15.00;;;;;22.96;45.01;99956.06;5026823;28;8856;-79
2022/07/17 04:12:37;;;;;;;;;15.40;15.40;;;;;23.03;44.70;99962.00;5069679;28;8861;-77
2022/07/17 04:15:09;;;;;;;;;13.80;13.80;;;;;23.07;44.27;99962.75;5053448;28;8830;-77
2022/07/17 04:17:37;;;;;;;;;12.20;12.20;;;;;23.15;43.76;99976.53;5009722;28;8866;-78
2022/07/17 04:20:07;;;;;;;;;17.60;15.60;;;;;23.09;44.03;99980.34;5091741;28;8908;-78
2022/07/17 04:22:35;;;;;;;;;15.80;14.80;;;;;23.11;43.88;99985.59;5055297;28;8857;-78
2022/07/17 04:25:05;;;;;;;;;14.80;14.00;;;;;23.17;43.70;99980.00;5071448;28;8865;-80
2022/07/17 04:27:33;;;;;;;;;15.60;13.20;;;;;23.07;43.74;99990.19;5070031;28;8877;-78
2022/07/17 04:30:02;;;;;;;;;14.00;14.00;;;;;23.21;43.48;99992.22;5086904;28;8911;-80
2022/07/17 04:32:32;;;;;;;;;12.60;12.60;;;;;23.20;43.32;99995.84;5107548;28;8830;-79
2022/07/17 04:35:00;;;;;;;;;13.20;13.20;;;;;23.26;43.28;99994.69;5091027;28;8841;-77
2022/07/17 04:37:30;;;;;;;;;15.00;14.80;;;;;23.33;43.25;99986.34;5090021;28;8842;-80
2022/07/17 04:39:58;;;;;;;;;10.80;10.60;;;;;23.13;42.85;99994.38;5127958;27;8876;-77
2022/07/17 04:42:27;;;;;;;;;13.60;13.60;;;;;23.12;42.62;99995.34;5112322;28;8929;-79
2022/07/17 04:44:56;;;;;;;;;14.20;13.60;;;;;23.12;42.34;99995.34;5112028;28;8841;-76
2022/07/17 04:47:24;;;;;;;;;10.80;10.40;;;;;23.11;42.23;99996.25;5095245;28;8947;-80
2022/07/17 04:49:55;;;;;;;;;13.40;12.60;;;;;23.33;41.80;99989.00;5077165;28;8892;-79
2022/07/17 04:52:24;;;;;;;;;10.80;10.80;;;;;23.31;40.93;99985.56;5111999;28;8849;-77
2022/07/17 04:54:52;;;;;;;;;10.60;10.60;;;;;23.32;40.75;99991.75;5113347;28;8890;-79
2022/07/17 04:57:21;;;;;;;;;11.00;11.00;;;;;23.43;40.30;99994.78;5110283;28;8837;-78
2022/07/17 04:59:50;;;;;;;;;10.00;10.00;;;;;23.42;39.99;99995.72;5074129;28;8867;-79
2022/07/17 05:02:19;;;;;;;;;10.80;10.80;;;;;23.39;40.26;100000.31;5091199;28;8858;-78
2022/07/17 05:04:48;;;;;;;;;9.40;9.40;;;;;23.40;39.97;100015.34;5108187;28;8828;-78
2022/07/17 05:07:19;;;;;;;;;14.00;13.80;;;;;23.42;40.03;100014.34;5108313;28;8835;-81
2022/07/17 05:09:48;;;;;;;;;10.00;10.00;;;;;23.55;39.87;100014.63;5090966;28;8844;-80
2022/07/17 05:12:17;;;;;;;;;14.60;12.20;;;;;23.58;39.63;100021.63;5074615;28;8860;-78
2022/07/17 05:14:46;;;;;;;;;10.00;10.00;;;;;23.71;39.41;100017.44;5107588;28;8845;-77
2022/07/17 05:17:15;;;;;;;;;10.20;10.20;;;;;23.86;39.16;100016.75;5094350;28;8841;-80
2022/07/17 05:19:44;;;;;;;;;9.00;9.00;;;;;23.82;38.82;100027.59;5069290;28;8852;-79
2022/07/17 05:22:12;;;;;;;;;14.20;11.60;;;;;23.88;38.60;100030.00;5052856;28;8985;-78
2022/07/17 05:24:42;;;;;;;;;13.20;13.20;;;;;23.99;38.38;100027.69;5036277;28;8985;-77
2022/07/17 05:27:11;;;;;;;;;9.20;9.20;;;;;23.95;38.49;100042.09;5052474;28;8874;-78
2022/07/17 05:29:39;;;;;;;;;18.40;18.40;;;;;23.97;38.86;100048.19;5028798;28;8882;-77
2022/07/17 05:32:08;;;;;;;;;20.00;19.60;;;;;24.04;38.58;100060.25;5012573;28;8866;-78
2022/07/17 05:34:37;;;;;;;;;7.20;7.20;;;;;24.05;38.42;100058.50;5045539;28;8858;-77
2022/07/17 05:37:05;;;;;;;;;8.80;8.80;;;;;24.21;38.18;100058.59;5012284;28;8881;-78
2022/07/17 05:39:34;;;;;;;;;12.00;12.00;;;;;24.32;37.96;100057.13;5029088;28;8866;-77
2022/07/17 05:42:04;;;;;;;;;9.40;8.40;;;;;24.42;37.95;100059.34;5011745;28;9020;-77
2022/07/17 05:44:33;;;;;;;;;11.60;11.60;;;;;24.50;37.54;100055.38;5012659;28;8882;-77
2022/07/17 05:47:02;;;;;;;;;11.00;10.20;;;;;24.53;37.42;100057.03;5028779;28;8838;-77
2022/07/17 05:49:31;;;;;;;;;11.40;11.00;;;;;24.66;37.19;100054.63;5028675;28;8857;-79
2022/07/17 05:51:59;;;;;;;;;11.60;11.20;;;;;24.69;37.03;100055.31;5082868;28;8856;-77
2022/07/17 05:54:28;;;;;;;;;11.40;10.40;;;;;24.79;36.78;100062.88;5068744;28;8864;-77
2022/07/17 05:56:57;;;;;;;;;11.40;11.40;;;;;24.77;36.27;100068.28;5052038;28;8868;-81
2022/07/17 05:59:27;;;;;;;;;13.20;12.60;;;;;24.69;36.54;100074.00;5069393;28;8846;-79
2022/07/17 06:01:55;;;;;;;;;10.40;10.40;;;;;24.79;36.60;100081.53;5068362;28;8873;-78
2022/07/17 06:04:24;;;;;;;;;10.60;10.60;;;;;24.85;36.37;100081.22;5068336;28;8850;-77
2022/07/17 06:06:53;;;;;;;;;10.60;10.60;;;;;24.94;36.38;100079.91;5078518;28;8863;-77
2022/07/17 06:09:21;;;;;;;;;9.80;9.80;;;;;24.95;36.07;100084.28;5094754;28;9581;-78
2022/07/17 06:11:50;;;;;;;;;11.60;10.40;;;;;25.05;36.04;100091.72;5095301;28;8967;-77
2022/07/17 06:14:19;;;;;;;;;11.00;11.00;;;;;25.15;35.74;100085.91;5092272;28;8847;-78
2022/07/17 06:16:48;;;;;;;;;11.60;11.40;;;;;25.34;35.64;100088.50;5091446;28;8863;-78
2022/07/17 06:19:18;;;;;;;;;16.80;16.80;;;;;25.43;35.23;100088.88;5061398;28;8885;-79
2022/07/17 06:21:46;;;;;;;;;15.00;14.20;;;;;25.44;35.58;100087.94;5090362;28;8856;-77
2022/07/17 06:24:15;;;;;;;;;18.40;18.40;;;;;25.52;35.46;100084.88;5073129;28;8859;-78
2022/07/17 06:26:44;;;;;;;;;11.80;11.80;;;;;25.67;34.92;100088.47;5073071;28;8839;-78
2022/07/17 06:29:12;;;;;;;;;12.60;12.00;;;;;25.82;34.94;100093.00;5072372;28;8847;-77
2022/07/17 06:31:41;;;;;;;;;11.80;11.80;;;;;25.83;34.89;100100.06;5072898;28;9627;-78
2022/07/17 06:34:12;;;;;;;;;11.20;11.20;;;;;25.93;34.72;100097.78;5059339;28;8856;-79
2022/07/17 06:36:40;;;;;;;;;12.80;12.80;;;;;26.03;34.70;100093.66;5110325;28;8841;-77
2022/07/17 06:39:09;;;;;;;;;11.40;11.40;;;;;26.08;34.12;100101.41;5109510;28;8837;-76
2022/07/17 06:41:38;;;;;;;;;11.40;11.00;;;;;26.24;33.63;100104.09;5109741;28;8909;-80
2022/07/17 06:44:06;;;;;;;;;11.80;11.80;;;;;26.46;33.72;100101.03;5092553;28;8825;-77
2022/07/17 06:46:35;;;;;;;;;10.00;10.00;;;;;26.72;33.73;100106.72;5092094;28;8841;-77
2022/07/17 06:49:04;;;;;;;;;9.40;9.20;;;;;26.84;33.12;100101.53;5086288;28;8852;-79
2022/07/17 06:51:34;;;;;;;;;8.00;8.00;;;;;26.88;32.18;100099.53;5105960;28;8863;-76
2022/07/17 06:54:07;;;;;;;;;8.40;8.40;;;;;26.82;32.09;100103.44;5088097;28;8887;-77
2022/07/17 06:56:36;;;;;;;;;10.40;10.40;;;;;26.96;32.64;100107.94;5090271;28;8925;-77
2022/07/17 06:59:07;;;;;;;;;9.20;9.20;;;;;27.05;31.88;100109.19;5093025;28;9060;-78
2022/07/17 07:01:38;;;;;;;;;14.00;13.20;;;;;27.08;31.79;100103.66;5058694;28;8845;-77
2022/07/17 07:04:09;;;;;;;;;12.00;10.80;;;;;27.12;31.85;100107.88;5075031;28;9695;-78
2022/07/17 07:06:40;;;;;;;;;6.60;5.80;;;;;27.23;31.77;100108.09;5109289;28;8926;-77
2022/07/17 07:09:09;;;;;;;;;9.80;9.80;;;;;27.29;31.81;100106.88;5069978;28;8843;-77
2022/07/17 07:11:44;;;;;;;;;13.80;12.60;;;;;27.31;31.24;100110.31;5069971;28;8960;-77
2022/07/17 07:14:13;;;;;;;;;11.00;9.20;;;;;27.35;30.49;100121.72;5067064;28;8926;-78
2022/07/17 07:16:41;;;;;;;;;9.60;8.60;;;;;27.25;30.07;100110.72;5051637;28;8933;-79
2022/07/17 07:19:10;;;;;;;;;10.20;10.20;;;;;27.11;30.11;100116.00;5052509;28;9024;-77
2022/07/17 07:21:40;;;;;;;;;9.20;9.20;;;;;27.17;30.03;100110.28;5054197;28;8869;-81
2022/07/17 07:24:09;;;;;;;;;8.60;8.60;;;;;27.20;29.95;100119.00;5050468;28;8976;-77
2022/07/17 07:26:38;;;;;;;;;8.20;8.20;;;;;27.27;29.82;100113.31;5034083;28;8855;-76
2022/07/17 07:29:06;;;;;;;;;10.60;10.00;;;;;27.26;29.23;100114.25;5067163;28;9593;-78
2022/07/17 07:31:42;;;;;;;;;7.40;7.40;;;;;27.37;29.30;100125.16;5050633;28;8905;-83
2022/07/17 07:34:11;;;;;;;;;12.80;11.80;;;;;27.37;28.95;100122.47;5050105;28;8844;-77
2022/07/17 07:36:41;;;;;;;;;7.80;7.20;;;;;26.85;28.65;100131.81;5050404;28;8837;-77
2022/07/17 07:39:10;;;;;;;;;7.40;7.20;;;;;27.10;28.51;100125.00;5067118;28;8846;-76
2022/07/17 07:41:39;;;;;;;;;7.40;7.40;;;;;27.12;28.18;100131.13;5070122;28;8943;-76
2022/07/17 07:44:08;;;;;;;;;5.20;5.20;;;;;27.23;28.02;100128.66;5070262;28;8959;-76
2022/07/17 07:46:37;;;;;;;;;7.00;7.00;;;;;27.44;28.56;100126.50;5065892;28;8838;-76
2022/07/17 07:49:05;;;;;;;;;7.40;7.40;;;;;27.59;28.69;100125.56;5032861;28;8956;-75
2022/07/17 07:51:34;;;;;;;;;10.40;9.00;;;;;27.55;28.40;100136.59;5073321;28;8861;-75
2022/07/17 07:54:24;;;;;;;;;12.40;10.20;;;;;27.53;28.34;100139.34;5069281;28;8876;-76
2022/07/17 07:56:54;;;;;;;;;8.00;8.00;;;;;27.63;27.93;100146.81;5086253;28;8983;-76
2022/07/17 07:59:22;;;;;;;;;7.00;7.00;;;;;27.67;28.21;100137.63;5086536;28;8872;-74
2022/07/17 08:01:51;;;;;;;;;6.80;6.20;;;;;27.94;28.72;100137.72;5085934;28;8890;-77
2022/07/17 08:04:21;;;;;;;;;9.20;9.20;;;;;28.06;28.52;100142.34;5086543;28;8879;-77
2022/07/17 08:06:49;;;;;;;;;8.80;8.80;;;;;27.40;29.32;100151.78;5069023;28;8867;-77
2022/07/17 08:09:17;;;;;;;;;8.00;8.00;;;;;27.18;29.82;100153.06;5086304;28;8958;-76
2022/07/17 08:11:48;;;;;;;;;9.00;8.00;;;;;26.89;30.50;100161.94;5085433;28;8847;-75
2022/07/17 08:14:17;;;;;;;;;8.00;8.00;;;;;27.08;30.46;100164.38;5069191;28;8856;-74
2022/07/17 08:16:45;;;;;;;;;25.75;25.75;;;;;27.39;30.96;100158.97;5070226;28;8985;-74
2022/07/17 08:19:15;;;;;;;;;12.20;12.20;;;;;27.31;31.27;100161.22;5107402;28;8849;-75
2022/07/17 08:21:43;;;;;;;;;7.40;6.60;;;;;27.09;30.73;100168.78;5094345;28;8980;-75
2022/07/17 08:24:12;;;;;;;;;6.20;6.20;;;;;27.24;31.00;100157.19;5088275;28;8874;-74
2022/07/17 08:26:42;;;;;;;;;7.60;7.60;;;;;26.44;31.10;100157.28;5069628;28;8886;-76
2022/07/17 08:29:13;;;;;;;;;7.60;7.60;;;;;26.38;31.06;100162.13;5088146;28;9597;-78
2022/07/17 08:31:41;;;;;;;;;7.80;7.00;;;;;26.80;30.16;100166.00;5088150;28;8870;-76
2022/07/17 08:34:10;;;;;;;;;6.20;6.20;;;;;27.04;29.32;100159.22;5041053;28;9594;-75
2022/07/17 08:36:39;;;;;;;;;9.40;8.40;;;;;27.15;30.10;100165.75;5108353;28;8848;-76
2022/07/17 08:39:08;;;;;;;;;7.00;7.00;;;;;27.20;29.80;100169.88;5055514;28;8853;-76
2022/07/17 08:41:38;;;;;;;;;8.00;7.00;;;;;27.35;29.14;100159.22;5108526;28;8852;-77
2022/07/17 08:44:08;;;;;;;;;5.40;5.40;;;;;27.56;28.61;100165.06;5088798;28;8836;-74
2022/07/17 08:46:40;;;;;;;;;6.60;6.60;;;;;27.25;29.07;100164.28;5106012;28;8983;-74
2022/07/17 08:49:09;;;;;;;;;7.40;7.40;;;;;26.99;30.03;100177.38;5106086;28;8851;-75
2022/07/17 08:51:37;;;;;;;;;7.00;7.00;;;;;26.67;30.61;100175.69;5105959;28;8865;-77
2022/07/17 08:54:13;;;;;;;;;7.00;7.00;;;;;26.39;31.44;100178.09;5038867;28;8955;-77
2022/07/17 08:56:41;;;;;;;;;7.80;6.80;;;;;25.62;32.18;100189.41;5072158;28;8877;-79
2022/07/17 08:59:11;;;;;;;;;7.00;7.00;;;;;25.54;32.98;100175.56;5089407;28;8883;-76
2022/07/17 09:01:41;;;;;;;;;8.80;8.40;;;;;25.39;32.69;100180.78;5073379;28;8839;-74
2022/07/17 09:04:09;;;;;;;;;5.60;5.60;;;;;25.66;32.77;100183.78;5105916;28;8948;-80
2022/07/17 09:06:39;;;;;;;;;7.60;7.60;;;;;25.38;32.86;100183.53;5089106;28;9577;-73
2022/07/17 09:09:09;;;;;;;;;7.60;7.00;;;;;25.04;32.78;100182.53;5105768;28;8840;-75
2022/07/17 09:11:46;;;;;;;;;6.00;6.00;;;;;24.89;33.00;100184.16;5105830;28;8852;-78
2022/07/17 09:14:15;;;;;;;;;5.00;5.00;;;;;24.84;32.57;100195.09;5074138;28;9612;-77
2022/07/17 09:16:53;;;;;;;;;6.00;5.00;;;;;25.09;32.76;100191.19;5109584;28;9003;-78
2022/07/17 09:19:30;;;;;;;;;6.60;6.60;;;;;25.06;32.21;100186.00;5093032;28;8820;-76
2022/07/17 09:22:11;;;;;;;;;16.60;16.60;;;;;25.40;31.93;100176.28;5101758;28;9467;-72
2022/07/17 09:24:44;;;;;;;;;8.40;7.00;;;;;25.42;30.82;100177.06;5110756;28;8841;-83
2022/07/17 09:27:17;;;;;;;;;5.00;5.00;;;;;25.20;31.31;100169.25;5111191;28;9709;-76
2022/07/17 09:29:58;;;;;;;;;5.60;5.60;;;;;25.40;31.11;100179.81;5092720;28;8951;-82
2022/07/17 09:32:32;;;;;;;;;5.20;5.20;;;;;25.60;30.68;100177.94;5088700;28;8847;-76
2022/07/17 09:35:02;;;;;;;;;5.20;5.20;;;;;25.57;31.07;100184.28;5072238;28;8898;-82
2022/07/17 09:37:32;;;;;;;;;5.00;5.00;;;;;25.28;31.24;100193.81;5072259;28;8831;-79
2022/07/17 09:40:01;;;;;;;;;5.00;5.00;;;;;25.71;30.92;100177.34;5055229;28;8997;-76
2022/07/17 09:42:34;;;;;;;;;8.60;8.60;;;;;26.08;30.29;100175.41;5055078;28;8857;-74
2022/07/17 09:45:06;;;;;;;;;5.20;5.20;;;;;25.61;30.14;100183.16;5022577;28;8832;-78
2022/07/17 09:47:47;;;;;;;;;5.40;5.40;;;;;25.32;30.56;100184.69;5011741;28;8832;-79
2022/07/17 09:50:18;;;;;;;;;5.40;5.20;;;;;25.39;30.76;100180.78;5071940;28;8970;-78
2022/07/17 09:52:49;;;;;;;;;6.00;5.80;;;;;24.99;30.90;100195.25;5056444;28;8888;-74
2022/07/17 09:55:19;;;;;;;;;5.40;5.40;;;;;24.98;31.16;100183.72;5024018;28;8855;-77
2022/07/17 09:58:12;;;;;;;;;5.00;5.00;;;;;24.80;31.34;100182.84;5109822;27;8862;-75
2022/07/17 10:00:40;;;;;;;;;6.00;6.00;;;;;24.93;31.63;100184.88;5095307;27;8869;-75
2022/07/17 10:03:11;;;;;;;;;5.80;5.00;;;;;25.14;31.59;100183.81;5111994;27;8850;-75
2022/07/17 10:05:40;;;;;;;;;7.00;6.00;;;;;24.86;31.69;100184.34;5129613;27;9110;-77
2022/07/17 10:08:13;;;;;;;;;6.40;6.20;;;;;25.05;31.64;100173.59;5094797;28;8844;-74
2022/07/17 10:10:42;;;;;;;;;11.40;10.40;;;;;25.53;31.81;100177.38;5108440;28;8840;-75
2022/07/17 10:13:15;;;;;;;;;28.25;28.00;;;;;25.96;31.19;100158.22;5108228;28;8914;-75
2022/07/17 10:15:44;;;;;;;;;14.00;12.40;;;;;26.31;30.32;100166.94;5108584;28;9577;-74
2022/07/17 10:18:14;;;;;;;;;5.60;5.60;;;;;26.25;30.11;100169.97;5078574;28;8952;-77
2022/07/17 10:20:43;;;;;;;;;5.80;4.00;;;;;26.40;29.52;100169.09;5048635;28;8846;-78
2022/07/17 10:23:15;;;;;;;;;5.80;5.80;;;;;26.79;29.84;100159.78;5031506;28;8991;-77
2022/07/17 10:25:44;;;;;;;;;6.00;6.00;;;;;27.05;29.28;100152.03;5031680;28;8873;-77
2022/07/17 10:28:13;;;;;;;;;6.20;6.20;;;;;26.67;28.82;100152.47;5013684;28;8865;-73
2022/07/17 10:30:46;;;;;;;;;8.00;8.00;;;;;26.44;29.38;100154.59;5047517;28;8868;-75
2022/07/17 10:33:17;;;;;;;;;6.00;6.00;;;;;26.75;29.11;100162.72;5014159;28;8846;-76
2022/07/17 10:35:49;;;;;;;;;5.20;5.20;;;;;26.19;29.12;100164.97;5031044;28;9088;-76
2022/07/17 10:38:18;;;;;;;;;4.40;4.40;;;;;25.73;30.21;100152.28;5014549;28;8853;-77
2022/07/17 10:40:59;;;;;;;;;5.40;4.80;;;;;25.92;29.86;100146.84;5058053;28;8863;-75
2022/07/17 10:43:28;;;;;;;;;5.80;5.00;;;;;26.39;29.42;100150.47;5067163;28;8881;-76
2022/07/17 10:45:56;;;;;;;;;6.20;6.20;;;;;26.56;28.29;100146.84;5050396;28;8868;-77
2022/07/17 10:48:27;;;;;;;;;5.00;5.00;;;;;26.78;28.15;100144.69;5050663;28;8929;-76
2022/07/17 10:50:57;;;;;;;;;5.20;5.20;;;;;26.63;27.54;100157.16;5021829;28;8848;-78
2022/07/17 10:53:29;;;;;;;;;5.20;5.00;;;;;27.01;27.90;100145.13;5109197;28;8841;-75
2022/07/17 10:56:01;;;;;;;;;4.80;4.80;;;;;27.31;27.54;100144.28;5108948;28;8849;-73
2022/07/17 10:58:32;;;;;;;;;4.40;4.40;;;;;27.50;26.58;100136.84;5091553;28;8908;-72
2022/07/17 11:01:07;;;;;;;;;5.00;5.00;;;;;27.73;25.96;100135.44;5091358;28;8853;-73
2022/07/17 11:03:40;;;;;;;;;6.60;6.60;;;;;27.53;26.34;100136.66;5108681;28;8833;-78
2022/07/17 11:06:12;;;;;;;;;17.75;17.75;;;;;27.92;26.02;100153.94;5110259;28;8925;-74
2022/07/17 11:08:50;;;;;;;;;5.00;5.00;;;;;27.16;26.68;100144.22;5110117;28;8971;-76
2022/07/17 11:11:20;;;;;;;;;5.60;5.60;;;;;26.45;27.78;100142.13;5091101;28;8841;-74
2022/07/17 11:14:08;;;;;;;;;5.40;5.40;;;;;26.26;27.93;100147.66;5072960;28;8866;-72
2022/07/17 11:16:39;;;;;;;;;7.00;7.00;;;;;26.12;28.29;100140.38;5088641;28;8836;-75
2022/07/17 11:19:09;;;;;;;;;5.00;5.00;;;;;26.20;28.70;100134.59;5089883;28;8961;-77
2022/07/17 11:21:46;;;;;;;;;6.80;6.80;;;;;26.70;28.14;100130.88;5088264;28;9610;-75
2022/07/17 11:24:15;;;;;;;;;5.00;5.00;;;;;27.27;27.29;100127.53;5088253;28;8873;-75
2022/07/17 11:26:45;;;;;;;;;6.40;6.00;;;;;27.53;26.27;100139.34;5088413;28;8918;-77
2022/07/17 11:29:14;;;;;;;;;7.20;7.20;;;;;27.40;26.20;100139.22;5080134;28;8840;-75
2022/07/17 11:31:44;;;;;;;;;6.20;4.00;;;;;27.88;25.85;100138.09;5071371;28;8970;-77
2022/07/17 11:34:15;;;;;;;;;4.60;4.60;;;;;28.18;25.27;100138.84;5053673;28;8867;-75
2022/07/17 11:36:45;;;;;;;;;6.40;6.00;;;;;28.56;25.01;100134.66;5053117;28;8859;-75
2022/07/17 11:39:15;;;;;;;;;5.00;5.00;;;;;28.41;24.75;100131.13;5089093;28;8883;-75